createdAt,value
2019-05-15T00:02:19.823Z,1.17
2019-05-15T00:04:53.076Z,1.13
2019-05-15T00:07:23.426Z,1.14
2019-05-15T00:09:53.789Z,1.03
2019-05-15T00:12:28.479Z,1.01
2019-05-15T00:15:01.124Z,0.92
2019-05-15T00:17:31.440Z,0.89
2019-05-15T00:20:02.106Z,0.87
2019-05-15T00:22:32.374Z,0.87
2019-05-15T00:25:08.997Z,0.83
2019-05-15T00:27:39.061Z,0.92
2019-05-15T00:30:13.113Z,1.01
2019-05-15T00:32:43.419Z,0.99
2019-05-15T00:35:14.070Z,0.95
2019-05-15T00:37:44.683Z,0.92
2019-05-15T00:40:15.236Z,0.93
2019-05-15T00:42:48.617Z,0.88
2019-05-15T00:45:18.735Z,0.85
2019-05-15T00:47:49.388Z,0.79
2019-05-15T00:50:20.757Z,0.73
2019-05-15T00:52:52.667Z,0.77
2019-05-15T00:55:23.330Z,1.02
2019-05-15T00:57:54.754Z,0.94
2019-05-15T01:00:40.590Z,0.82
2019-05-15T01:03:12.301Z,0.71
2019-05-15T01:05:43.326Z,0.70
2019-05-15T01:08:13.609Z,0.81
2019-05-15T01:10:43.996Z,0.87
2019-05-15T01:13:14.273Z,0.76
2019-05-15T01:15:44.698Z,0.69
2019-05-15T01:18:15.840Z,0.68
2019-05-15T01:20:46.270Z,0.61
2019-05-15T01:23:18.734Z,0.54
2019-05-15T01:25:49.381Z,0.53
2019-05-15T01:28:38.568Z,0.48
2019-05-15T01:31:08.842Z,0.43
2019-05-15T01:33:39.590Z,0.62
2019-05-15T01:36:11.124Z,0.62
2019-05-15T01:38:42.214Z,0.84
2019-05-15T01:41:13.867Z,0.77
2019-05-15T01:43:44.110Z,0.71
2019-05-15T01:46:14.750Z,0.60
2019-05-15T01:48:45.553Z,0.60
2019-05-15T01:51:18.354Z,0.52
2019-05-15T01:53:48.223Z,0.43
2019-05-15T01:56:18.935Z,0.39
2019-05-15T01:58:49.367Z,0.33
2019-05-15T02:01:19.715Z,0.28
2019-05-15T02:03:50.007Z,0.40
2019-05-15T02:06:20.700Z,0.39
2019-05-15T02:08:51.385Z,0.33
2019-05-15T02:11:22.015Z,0.33
2019-05-15T02:13:53.621Z,0.26
2019-05-15T02:16:23.892Z,0.21
2019-05-15T02:18:58.250Z,0.18
2019-05-15T02:21:29.040Z,0.18
2019-05-15T02:23:59.735Z,0.13
2019-05-15T02:26:30.762Z,0.06
2019-05-15T02:29:01.667Z,0.02
2019-05-15T02:31:32.217Z,0.02
2019-05-15T02:34:02.520Z,-0.04
2019-05-15T02:36:32.884Z,-0.04
2019-05-15T02:39:04.515Z,-0.05
2019-05-15T02:41:34.797Z,0.00
2019-05-15T02:44:05.414Z,-0.04
2019-05-15T02:46:39.219Z,-0.04
2019-05-15T02:49:09.127Z,-0.05
2019-05-15T02:51:40.225Z,-0.09
2019-05-15T02:54:10.771Z,-0.10
2019-05-15T02:56:41.076Z,0.02
2019-05-15T02:59:11.402Z,0.02
2019-05-15T03:01:42.018Z,0.02
2019-05-15T03:04:12.704Z,0.09
2019-05-15T03:06:42.980Z,0.19
2019-05-15T03:09:13.315Z,0.26
2019-05-15T03:11:43.629Z,0.32
2019-05-15T03:14:13.908Z,0.33
2019-05-15T03:16:45.781Z,0.36
2019-05-15T03:19:18.716Z,0.42
2019-05-15T03:21:49.691Z,0.49
2019-05-15T03:24:20.470Z,0.56
2019-05-15T03:26:52.186Z,0.69
2019-05-15T03:29:22.477Z,0.69
2019-05-15T03:32:13.476Z,0.75
2019-05-15T03:34:30.991Z,0.83
2019-05-15T03:37:03.521Z,0.95
2019-05-15T03:39:31.806Z,1.10
2019-05-15T03:42:02.070Z,1.22
2019-05-15T03:44:32.332Z,1.33
2019-05-15T03:47:02.665Z,1.44
2019-05-15T03:49:32.933Z,1.59
2019-05-15T03:52:10.003Z,1.70
2019-05-15T03:54:40.179Z,1.85
2019-05-15T03:57:10.454Z,1.98
2019-05-15T03:59:40.784Z,2.13
2019-05-15T04:02:11.404Z,2.28
2019-05-15T04:04:41.706Z,2.43
2019-05-15T04:07:14.122Z,2.58
2019-05-15T04:09:44.377Z,2.74
2019-05-15T04:12:14.665Z,2.92
2019-05-15T04:14:45.085Z,3.08
2019-05-15T04:17:19.537Z,3.23
2019-05-15T04:19:49.715Z,3.39
2019-05-15T04:22:21.288Z,3.58
2019-05-15T04:24:52.535Z,3.82
2019-05-15T04:27:24.227Z,4.11
2019-05-15T04:29:54.787Z,4.42
2019-05-15T04:32:28.609Z,4.76
2019-05-15T04:34:59.423Z,5.11
2019-05-15T04:37:30.030Z,5.42
2019-05-15T04:40:00.785Z,5.67
2019-05-15T04:42:31.550Z,5.95
2019-05-15T04:45:01.849Z,6.24
2019-05-15T04:47:35.419Z,6.55
2019-05-15T04:50:08.963Z,6.80
2019-05-15T04:52:42.421Z,7.06
2019-05-15T04:55:10.864Z,7.35
2019-05-15T04:57:41.230Z,7.64
2019-05-15T05:00:13.222Z,7.87
2019-05-15T05:02:43.551Z,8.22
2019-05-15T05:05:14.963Z,8.44
2019-05-15T05:07:45.319Z,8.77
2019-05-15T05:10:19.498Z,9.12
2019-05-15T05:12:50.815Z,9.34
2019-05-15T05:15:23.348Z,9.46
2019-05-15T05:17:54.063Z,9.67
2019-05-15T05:20:25.051Z,9.94
2019-05-15T05:22:55.343Z,9.93
2019-05-15T05:25:27.999Z,10.07
2019-05-15T05:27:58.101Z,10.23
2019-05-15T05:30:29.870Z,10.38
2019-05-15T05:33:00.192Z,10.58
2019-05-15T05:35:30.616Z,10.88
2019-05-15T05:38:00.963Z,11.20
2019-05-15T05:40:31.274Z,11.28
2019-05-15T05:43:01.607Z,11.33
2019-05-15T05:45:32.902Z,11.64
2019-05-15T05:48:03.200Z,11.85
2019-05-15T05:50:44.207Z,12.09
2019-05-15T05:53:13.784Z,12.56
2019-05-15T05:55:44.087Z,13.53
2019-05-15T05:58:14.497Z,14.55
2019-05-15T06:00:48.898Z,15.05
2019-05-15T06:03:19.840Z,15.87
2019-05-15T06:05:52.569Z,15.85
2019-05-15T06:08:22.842Z,16.67
2019-05-15T06:10:53.145Z,17.31
2019-05-15T06:13:25.603Z,17.14
2019-05-15T06:15:55.892Z,17.46
2019-05-15T06:18:28.123Z,17.69
2019-05-15T06:20:58.842Z,18.11
2019-05-15T06:23:35.109Z,18.40
2019-05-15T06:26:01.324Z,18.39
2019-05-15T06:28:33.072Z,18.16
2019-05-15T06:31:08.564Z,18.84
2019-05-15T06:33:38.662Z,18.61
2019-05-15T06:36:09.300Z,18.91
2019-05-15T06:38:39.697Z,18.86
2019-05-15T06:41:10.037Z,18.21
2019-05-15T06:43:40.331Z,17.64
2019-05-15T06:46:12.929Z,17.26
2019-05-15T06:48:45.768Z,16.91
2019-05-15T06:51:18.217Z,16.76
2019-05-15T06:53:50.781Z,16.67
2019-05-15T06:56:21.042Z,16.21
2019-05-15T06:58:51.452Z,16.08
2019-05-15T07:01:21.842Z,16.94
2019-05-15T07:03:52.634Z,17.39
2019-05-15T07:06:22.967Z,18.08
2019-05-15T07:08:53.324Z,18.71
2019-05-15T07:11:23.793Z,18.20
2019-05-15T07:13:54.139Z,18.82
2019-05-15T07:16:24.872Z,18.94
2019-05-15T07:18:58.864Z,18.85
2019-05-15T07:21:31.538Z,19.36
2019-05-15T07:24:01.855Z,19.07
2019-05-15T07:26:31.983Z,18.87
2019-05-15T07:29:07.774Z,19.28
2019-05-15T07:31:38.457Z,19.15
2019-05-15T07:34:09.004Z,19.89
2019-05-15T07:36:39.373Z,20.36
2019-05-15T07:39:09.953Z,21.20
2019-05-15T07:41:40.286Z,22.13
2019-05-15T07:44:10.867Z,22.61
2019-05-15T07:46:43.515Z,24.44
2019-05-15T07:49:13.796Z,24.75
2019-05-15T07:51:48.836Z,25.55
2019-05-15T07:54:18.947Z,24.92
2019-05-15T07:56:49.669Z,24.10
2019-05-15T07:59:20.336Z,23.81
2019-05-15T08:01:50.601Z,22.76
2019-05-15T08:04:28.719Z,21.93
2019-05-15T08:06:59.291Z,21.67
2019-05-15T08:09:30.505Z,20.60
2019-05-15T08:12:05.316Z,20.67
2019-05-15T08:14:38.690Z,20.35
2019-05-15T08:17:09.878Z,20.57
2019-05-15T08:19:40.207Z,22.72
2019-05-15T08:22:11.056Z,23.55
2019-05-15T08:24:41.401Z,23.52
2019-05-15T08:27:15.108Z,24.27
2019-05-15T08:29:45.420Z,24.39
2019-05-15T08:32:15.770Z,24.75
2019-05-15T08:34:48.041Z,25.49
2019-05-15T08:37:18.421Z,26.02
2019-05-15T08:39:49.347Z,25.78
2019-05-15T08:42:20.286Z,26.65
2019-05-15T08:44:50.624Z,27.30
2019-05-15T08:47:21.394Z,27.43
2019-05-15T08:49:57.970Z,26.77
2019-05-15T08:52:30.059Z,25.96
2019-05-15T08:55:00.433Z,26.40
2019-05-15T08:57:30.667Z,25.66
2019-05-15T09:00:02.728Z,26.67
2019-05-15T09:02:33.447Z,26.03
2019-05-15T09:05:04.414Z,25.96
2019-05-15T09:07:34.788Z,26.22
2019-05-15T09:10:09.039Z,26.99
2019-05-15T09:12:40.607Z,27.87
2019-05-15T09:15:19.720Z,27.80
2019-05-15T09:17:50.059Z,27.45
2019-05-15T09:20:20.571Z,28.02
2019-05-15T09:22:53.954Z,28.33
2019-05-15T09:25:24.324Z,28.16
2019-05-15T09:27:54.921Z,27.91
2019-05-15T09:30:25.265Z,27.53
2019-05-15T09:32:58.827Z,27.42
2019-05-15T09:35:29.289Z,27.65
2019-05-15T09:38:00.068Z,27.65
2019-05-15T09:40:45.216Z,27.70
2019-05-15T09:43:03.985Z,27.70
2019-05-15T09:45:34.685Z,27.17
2019-05-15T09:48:05.260Z,27.87
2019-05-15T09:50:35.926Z,26.67
2019-05-15T09:53:09.125Z,25.95
2019-05-15T09:55:39.001Z,26.63
2019-05-15T09:58:09.300Z,27.61
2019-05-15T10:00:40.041Z,27.11
2019-05-15T10:03:10.334Z,28.37
2019-05-15T10:05:42.973Z,27.59
2019-05-15T10:08:13.628Z,28.72
2019-05-15T10:10:44.300Z,28.30
2019-05-15T10:13:21.729Z,27.98
2019-05-15T10:15:53.339Z,28.64
2019-05-15T10:18:31.244Z,28.64
2019-05-15T10:21:04.590Z,28.44
2019-05-15T10:23:40.062Z,29.07
2019-05-15T10:26:13.847Z,29.32
2019-05-15T10:28:42.064Z,29.11
2019-05-15T10:31:15.871Z,29.30
2019-05-15T10:33:49.156Z,29.47
2019-05-15T10:36:24.494Z,29.19
2019-05-15T10:38:59.235Z,28.99
2019-05-15T10:41:29.761Z,29.51
2019-05-15T10:44:13.431Z,29.51
2019-05-15T10:46:48.390Z,28.77
2019-05-15T10:49:19.092Z,28.90
2019-05-15T10:51:50.733Z,29.03
2019-05-15T10:54:22.558Z,30.36
2019-05-15T10:57:00.417Z,29.51
2019-05-15T10:59:28.327Z,29.64
2019-05-15T11:02:00.250Z,28.12
2019-05-15T11:04:31.000Z,28.72
2019-05-15T11:07:02.460Z,28.83
2019-05-15T11:09:37.538Z,29.14
2019-05-15T11:12:09.558Z,29.53
2019-05-15T11:14:40.018Z,29.39
2019-05-15T11:17:10.476Z,29.53
2019-05-15T11:19:41.008Z,27.36
2019-05-15T11:22:19.175Z,28.00
2019-05-15T11:24:54.911Z,29.57
2019-05-15T11:27:27.966Z,29.74
2019-05-15T11:30:00.215Z,30.29
2019-05-15T11:32:30.511Z,29.28
2019-05-15T11:35:04.130Z,29.66
2019-05-15T11:37:34.478Z,29.36
2019-05-15T11:40:05.434Z,28.57
2019-05-15T11:42:36.163Z,28.93
2019-05-15T11:45:15.006Z,28.34
2019-05-15T11:47:45.453Z,28.32
2019-05-15T11:50:20.548Z,29.79
2019-05-15T11:52:50.379Z,28.70
2019-05-15T11:55:21.146Z,28.63
2019-05-15T11:57:55.720Z,29.27
2019-05-15T12:00:30.006Z,27.36
2019-05-15T12:02:59.223Z,27.36
2019-05-15T12:05:29.513Z,28.10
2019-05-15T12:07:59.965Z,27.62
2019-05-15T12:10:30.332Z,27.62
2019-05-15T12:13:05.131Z,26.95
2019-05-15T12:15:35.532Z,27.01
2019-05-15T12:18:08.486Z,28.79
2019-05-15T12:20:48.904Z,27.89
2019-05-15T12:23:19.278Z,27.43
2019-05-15T12:25:53.193Z,27.88
2019-05-15T12:28:24.367Z,28.13
2019-05-15T12:30:54.665Z,27.95
2019-05-15T12:33:24.964Z,27.95
2019-05-15T12:35:55.687Z,28.31
2019-05-15T12:38:29.284Z,27.61
2019-05-15T13:01:25.118Z,26.09
2019-05-15T13:03:57.950Z,27.01
2019-05-15T13:06:28.766Z,27.08
2019-05-15T13:09:02.245Z,27.43
2019-05-15T13:11:32.650Z,28.66
2019-05-15T13:14:02.974Z,29.21
2019-05-15T13:16:34.270Z,27.75
2019-05-15T13:19:08.323Z,28.29
2019-05-15T13:21:40.379Z,29.01
2019-05-15T13:24:10.985Z,28.68
2019-05-15T13:26:42.845Z,29.26
2019-05-15T13:29:13.162Z,27.85
2019-05-15T13:31:43.484Z,27.26
2019-05-15T13:34:19.737Z,27.59
2019-05-15T13:36:49.527Z,26.62
2019-05-15T13:39:20.237Z,26.62
2019-05-15T13:41:53.641Z,26.64
2019-05-15T13:44:24.115Z,26.70
2019-05-15T13:46:58.175Z,26.74
2019-05-15T13:49:29.382Z,26.16
2019-05-15T13:52:02.512Z,25.88
2019-05-15T13:54:37.947Z,24.29
2019-05-15T13:57:10.806Z,23.85
2019-05-15T13:59:41.650Z,24.25
2019-05-15T14:02:11.974Z,24.90
2019-05-15T14:04:42.303Z,26.08
2019-05-15T14:07:15.067Z,26.68
2019-05-15T14:09:59.881Z,26.31
2019-05-15T14:12:29.516Z,26.33
2019-05-15T14:14:59.990Z,25.32
2019-05-15T14:17:32.931Z,25.62
2019-05-15T14:20:03.820Z,24.98
2019-05-15T14:22:35.651Z,25.26
2019-05-15T14:25:08.191Z,25.87
2019-05-15T14:27:39.946Z,25.27
2019-05-15T14:30:23.481Z,24.51
2019-05-15T14:32:54.184Z,23.90
2019-05-15T14:35:24.763Z,22.83
2019-05-15T14:38:03.721Z,22.88
2019-05-15T14:40:29.942Z,23.04
2019-05-15T14:43:03.250Z,23.51
2019-05-15T14:45:34.929Z,24.08
2019-05-15T14:48:05.578Z,24.42
2019-05-15T14:50:41.739Z,24.63
2019-05-15T14:53:14.425Z,24.63
2019-05-15T14:55:44.981Z,25.37
2019-05-15T14:58:15.609Z,25.04
2019-05-15T15:00:49.667Z,24.72
2019-05-15T15:03:24.523Z,23.98
2019-05-15T15:05:58.196Z,23.65
2019-05-15T15:08:29.278Z,23.55
2019-05-15T15:11:00.383Z,23.94
2019-05-15T15:13:31.308Z,23.78
2019-05-15T15:16:02.355Z,23.28
2019-05-15T15:18:34.552Z,23.25
2019-05-15T15:21:04.875Z,22.84
2019-05-15T15:23:38.737Z,22.69
2019-05-15T15:26:09.060Z,22.82
2019-05-15T15:28:40.223Z,22.59
2019-05-15T15:31:18.945Z,22.09
2019-05-15T15:33:51.532Z,22.03
2019-05-15T15:36:21.847Z,21.67
2019-05-15T15:38:52.759Z,20.97
2019-05-15T15:41:23.947Z,20.46
2019-05-15T15:43:54.678Z,20.42
2019-05-15T15:46:25.025Z,20.50
2019-05-15T15:48:55.129Z,20.81
2019-05-15T15:51:28.587Z,20.76
2019-05-15T15:53:59.079Z,20.52
2019-05-15T15:56:29.427Z,20.22
2019-05-15T15:58:59.828Z,19.98
2019-05-15T16:01:31.357Z,19.65
2019-05-15T16:04:03.157Z,19.78
2019-05-15T16:06:33.492Z,19.57
2019-05-15T16:09:08.690Z,19.70
2019-05-15T16:11:39.681Z,19.61
2019-05-15T16:14:11.498Z,19.07
2019-05-15T16:16:41.854Z,18.75
2019-05-15T16:19:12.151Z,18.41
2019-05-15T16:21:42.815Z,18.29
2019-05-15T16:24:17.758Z,18.17
2019-05-15T16:26:49.657Z,17.73
2019-05-15T16:29:20.492Z,17.50
2019-05-15T16:31:53.603Z,17.72
2019-05-15T16:34:28.243Z,17.49
2019-05-15T16:36:58.549Z,17.13
2019-05-15T16:39:31.689Z,16.74
2019-05-15T16:42:06.283Z,16.38
2019-05-15T16:44:38.395Z,16.22
2019-05-15T16:47:08.964Z,15.87
2019-05-15T16:49:39.444Z,15.78
2019-05-15T16:52:10.037Z,15.74
2019-05-15T16:54:40.326Z,15.53
2019-05-15T16:57:15.287Z,15.28
2019-05-15T16:59:47.881Z,15.12
2019-05-15T17:02:18.860Z,14.98
2019-05-15T17:04:49.600Z,14.92
2019-05-15T17:07:20.046Z,14.83
2019-05-15T17:10:00.902Z,14.70
2019-05-15T17:12:31.334Z,14.46
2019-05-15T17:15:01.668Z,14.35
2019-05-15T17:17:33.621Z,14.28
2019-05-15T17:20:04.468Z,14.18
2019-05-15T17:22:34.765Z,14.13
2019-05-15T17:25:09.221Z,14.04
2019-05-15T17:27:40.759Z,13.89
2019-05-15T17:30:11.103Z,13.78
2019-05-15T17:32:41.459Z,13.63
2019-05-15T17:35:12.129Z,13.65
2019-05-15T17:37:44.184Z,13.45
2019-05-15T17:40:14.988Z,13.37
2019-05-15T17:42:45.666Z,13.30
2019-05-15T17:45:16.330Z,13.27
2019-05-15T17:47:48.798Z,13.06
2019-05-15T17:50:22.806Z,12.85
2019-05-15T17:52:53.103Z,12.86
2019-05-15T17:55:23.909Z,12.68
2019-05-15T17:57:58.328Z,12.54
2019-05-15T18:00:28.622Z,12.47
2019-05-15T18:02:59.114Z,12.41
2019-05-15T18:05:31.084Z,12.35
2019-05-15T18:08:01.365Z,12.25
2019-05-15T18:10:31.899Z,12.20
2019-05-15T18:13:04.700Z,12.10
2019-05-15T18:15:35.195Z,12.08
2019-05-15T18:18:09.153Z,11.92
2019-05-15T18:20:40.793Z,11.78
2019-05-15T18:23:11.092Z,11.68
2019-05-15T18:25:41.401Z,11.51
2019-05-15T18:28:11.723Z,11.41
2019-05-15T18:30:41.952Z,11.38
2019-05-15T18:33:12.489Z,11.21
2019-05-15T18:35:44.269Z,11.17
2019-05-15T18:38:14.559Z,11.11
2019-05-15T18:40:44.864Z,10.94
2019-05-15T18:43:15.200Z,10.80
2019-05-15T18:45:47.766Z,10.80
2019-05-15T18:48:18.534Z,10.68
2019-05-15T18:50:49.101Z,10.57
2019-05-15T18:53:21.737Z,10.52
2019-05-15T18:55:53.691Z,10.40
2019-05-15T18:58:24.304Z,10.31
2019-05-15T19:00:54.843Z,10.25
2019-05-15T19:03:38.488Z,10.20
2019-05-15T19:06:09.017Z,10.23
2019-05-15T19:08:42.639Z,10.19
2019-05-15T19:11:13.084Z,10.08
2019-05-15T19:13:48.151Z,9.82
2019-05-15T19:16:18.546Z,9.56
2019-05-15T19:18:49.039Z,9.43
2019-05-15T19:21:19.399Z,9.26
2019-05-15T19:23:49.794Z,9.05
2019-05-15T19:26:19.964Z,8.84
2019-05-15T19:28:50.766Z,8.70
2019-05-15T19:31:26.764Z,8.50
2019-05-15T19:33:53.119Z,8.40
2019-05-15T19:36:23.647Z,8.41
2019-05-15T19:38:54.342Z,8.38
2019-05-15T19:41:24.707Z,8.18
2019-05-15T19:43:58.012Z,7.99
2019-05-15T19:46:28.276Z,7.78
2019-05-15T19:49:03.292Z,7.67
2019-05-15T19:51:38.145Z,7.63
2019-05-15T19:54:09.178Z,7.62
2019-05-15T19:56:43.312Z,7.63
2019-05-15T19:59:13.609Z,7.50
2019-05-15T20:01:45.505Z,7.31
2019-05-15T20:04:16.039Z,7.27
2019-05-15T20:06:48.065Z,7.28
2019-05-15T20:09:18.417Z,7.25
2019-05-15T20:12:00.391Z,7.12
2019-05-15T20:14:30.755Z,7.08
2019-05-15T20:17:01.408Z,6.95
2019-05-15T20:19:31.709Z,6.77
2019-05-15T20:22:02.029Z,6.62
2019-05-15T20:24:33.714Z,6.46
2019-05-15T20:27:04.124Z,6.29
2019-05-15T20:29:34.615Z,6.15
2019-05-15T20:32:06.109Z,6.19
2019-05-15T20:34:38.351Z,6.06
2019-05-15T20:37:09.071Z,5.93
2019-05-15T20:39:39.418Z,5.82
2019-05-15T20:42:10.006Z,5.72
2019-05-15T20:44:40.327Z,5.58
2019-05-15T20:47:12.512Z,5.47
2019-05-15T20:49:43.113Z,5.56
2019-05-15T20:52:18.310Z,5.42
2019-05-15T20:54:48.097Z,5.50
2019-05-15T20:57:20.077Z,5.42
2019-05-15T20:59:50.424Z,5.30
2019-05-15T21:02:21.322Z,5.23
2019-05-15T21:04:52.675Z,5.13
2019-05-15T21:07:35.796Z,5.02
2019-05-15T21:09:56.022Z,4.94
2019-05-15T21:12:29.317Z,4.84
2019-05-15T21:14:58.325Z,4.74
2019-05-15T21:17:28.650Z,4.68
2019-05-15T21:20:01.642Z,4.68
2019-05-15T21:22:33.878Z,4.73
2019-05-15T21:25:08.097Z,4.80
2019-05-15T21:27:42.291Z,4.79
2019-05-15T21:30:11.998Z,4.67
2019-05-15T21:32:42.599Z,4.55
2019-05-15T21:35:12.894Z,4.48
2019-05-15T21:37:43.471Z,4.42
2019-05-15T21:40:14.333Z,4.38
2019-05-15T21:42:44.656Z,4.39
2019-05-15T21:45:18.458Z,4.31
2019-05-15T21:47:48.810Z,4.28
2019-05-15T21:50:19.543Z,4.21
2019-05-15T21:52:51.234Z,4.19
2019-05-15T21:55:21.546Z,4.17
2019-05-15T21:57:52.348Z,4.09
2019-05-15T22:00:31.104Z,4.00
2019-05-15T22:03:01.401Z,3.95
2019-05-15T22:05:31.794Z,3.96
2019-05-15T22:08:03.154Z,4.13
2019-05-15T22:10:34.266Z,4.25
2019-05-15T22:13:05.302Z,4.19
2019-05-15T22:15:35.670Z,4.00
2019-05-15T22:18:08.691Z,3.86
2019-05-15T22:20:40.187Z,3.81
2019-05-15T22:23:10.530Z,3.85
2019-05-15T22:25:43.676Z,3.89
2019-05-15T22:28:14.023Z,3.84
2019-05-15T22:30:44.425Z,3.76
2019-05-15T22:33:14.725Z,3.65
2019-05-15T22:35:48.655Z,3.53
2019-05-15T22:38:18.164Z,3.42
2019-05-15T22:40:49.165Z,3.29
2019-05-15T22:43:20.251Z,3.23
2019-05-15T22:45:50.605Z,3.16
2019-05-15T22:48:20.855Z,3.11
2019-05-15T22:50:51.156Z,3.08
2019-05-15T22:53:21.874Z,3.04
2019-05-15T22:55:53.185Z,2.98
2019-05-15T22:58:23.467Z,2.93
2019-05-15T23:00:53.834Z,2.87
2019-05-15T23:03:28.181Z,2.82
2019-05-15T23:05:58.695Z,2.77
2019-05-15T23:08:29.265Z,2.67
2019-05-15T23:11:00.246Z,2.59
2019-05-15T23:13:30.714Z,2.56
2019-05-15T23:16:01.043Z,2.54
2019-05-15T23:18:32.375Z,2.53
2019-05-15T23:21:02.612Z,2.53
2019-05-15T23:23:33.004Z,2.57
2019-05-15T23:26:07.657Z,2.55
2019-05-15T23:28:38.667Z,2.48
2019-05-15T23:31:09.479Z,2.44
2019-05-15T23:33:39.791Z,2.42
2019-05-15T23:36:13.197Z,2.37
2019-05-15T23:38:47.779Z,2.30
2019-05-15T23:41:19.102Z,2.26
2019-05-15T23:43:50.543Z,2.22
2019-05-15T23:46:21.532Z,2.17
2019-05-15T23:48:51.835Z,2.14
2019-05-15T23:51:22.478Z,2.08
2019-05-15T23:53:52.858Z,2.05
2019-05-15T23:56:23.161Z,2.03
2019-05-15T23:58:53.822Z,2.09
